sensor_id;sensor_type;location;lat;lon;timestamp;P1;durP1;ratioP1;P2;durP2;ratioP2
15443;SDS011;7822;48.146;11.576;2022-08-04T00:01:59;3.22;;;3.03;;
15443;SDS011;7822;48.146;11.576;2022-08-04T00:04:31;2.95;;;2.75;;
15443;SDS011;7822;48.146;11.576;2022-08-04T00:07:13;3.85;;;3.47;;
15443;SDS011;7822;48.146;11.576;2022-08-04T00:10:05;3.20;;;2.90;;
15443;SDS011;7822;48.146;11.576;2022-08-04T00:12:36;4.82;;;3.00;;
15443;SDS011;7822;48.146;11.576;2022-08-04T00:15:09;3.63;;;3.33;;
15443;SDS011;7822;48.146;11.576;2022-08-04T00:17:44;3.15;;;2.85;;
15443;SDS011;7822;48.146;11.576;2022-08-04T00:20:16;3.38;;;3.08;;
15443;SDS011;7822;48.146;11.576;2022-08-04T00:22:47;3.13;;;2.92;;
15443;SDS011;7822;48.146;11.576;2022-08-04T00:25:18;3.50;;;2.97;;
15443;SDS011;7822;48.146;11.576;2022-08-04T00:27:46;2.97;;;2.75;;
15443;SDS011;7822;48.146;11.576;2022-08-04T00:30:14;3.20;;;2.90;;
15443;SDS011;7822;48.146;11.576;2022-08-04T00:32:42;3.88;;;3.15;;
15443;SDS011;7822;48.146;11.576;2022-08-04T00:35:12;2.78;;;2.45;;
15443;SDS011;7822;48.146;11.576;2022-08-04T00:37:41;3.47;;;3.17;;
15443;SDS011;7822;48.146;11.576;2022-08-04T00:40:18;3.22;;;2.88;;
15443;SDS011;7822;48.146;11.576;2022-08-04T00:42:58;3.30;;;3.00;;
15443;SDS011;7822;48.146;11.576;2022-08-04T00:45:39;3.00;;;2.70;;
15443;SDS011;7822;48.146;11.576;2022-08-04T00:48:46;3.20;;;3.00;;
15443;SDS011;7822;48.146;11.576;2022-08-04T00:51:25;3.08;;;2.83;;
15443;SDS011;7822;48.146;11.576;2022-08-04T00:54:03;3.20;;;3.00;;
15443;SDS011;7822;48.146;11.576;2022-08-04T00:56:52;3.90;;;2.72;;
15443;SDS011;7822;48.146;11.576;2022-08-04T01:00:01;3.80;;;2.80;;
15443;SDS011;7822;48.146;11.576;2022-08-04T01:02:34;3.03;;;2.75;;
15443;SDS011;7822;48.146;11.576;2022-08-04T01:05:06;3.13;;;2.90;;
15443;SDS011;7822;48.146;11.576;2022-08-04T01:10:40;2.72;;;2.50;;
15443;SDS011;7822;48.146;11.576;2022-08-04T01:13:25;3.40;;;3.13;;
15443;SDS011;7822;48.146;11.576;2022-08-04T01:16:09;3.25;;;2.88;;
15443;SDS011;7822;48.146;11.576;2022-08-04T01:18:45;3.00;;;2.80;;
15443;SDS011;7822;48.146;11.576;2022-08-04T01:21:29;2.88;;;2.60;;
15443;SDS011;7822;48.146;11.576;2022-08-04T01:24:28;3.08;;;2.88;;
15443;SDS011;7822;48.146;11.576;2022-08-04T01:27:17;3.00;;;2.47;;
15443;SDS011;7822;48.146;11.576;2022-08-04T01:29:58;2.80;;;2.47;;
15443;SDS011;7822;48.146;11.576;2022-08-04T01:32:30;2.78;;;2.58;;
15443;SDS011;7822;48.146;11.576;2022-08-04T01:35:02;2.58;;;2.47;;
15443;SDS011;7822;48.146;11.576;2022-08-04T01:37:45;2.92;;;2.72;;
15443;SDS011;7822;48.146;11.576;2022-08-04T01:40:18;3.03;;;2.75;;
15443;SDS011;7822;48.146;11.576;2022-08-04T01:42:48;2.90;;;2.70;;
15443;SDS011;7822;48.146;11.576;2022-08-04T01:45:21;2.92;;;2.72;;
15443;SDS011;7822;48.146;11.576;2022-08-04T01:47:51;2.85;;;2.65;;
15443;SDS011;7822;48.146;11.576;2022-08-04T01:50:20;3.15;;;2.95;;
15443;SDS011;7822;48.146;11.576;2022-08-04T01:52:51;5.05;;;3.17;;
15443;SDS011;7822;48.146;11.576;2022-08-04T01:55:20;3.40;;;3.20;;
15443;SDS011;7822;48.146;11.576;2022-08-04T01:58:08;3.28;;;3.00;;
15443;SDS011;7822;48.146;11.576;2022-08-04T02:00:39;3.35;;;3.05;;
15443;SDS011;7822;48.146;11.576;2022-08-04T02:03:21;3.38;;;3.17;;
15443;SDS011;7822;48.146;11.576;2022-08-04T02:06:10;3.58;;;3.30;;
15443;SDS011;7822;48.146;11.576;2022-08-04T02:08:54;3.50;;;3.20;;
15443;SDS011;7822;48.146;11.576;2022-08-04T02:11:30;3.15;;;2.85;;
15443;SDS011;7822;48.146;11.576;2022-08-04T02:14:00;3.03;;;2.83;;
15443;SDS011;7822;48.146;11.576;2022-08-04T02:16:37;3.17;;;2.88;;
15443;SDS011;7822;48.146;11.576;2022-08-04T02:19:21;3.17;;;2.88;;
15443;SDS011;7822;48.146;11.576;2022-08-04T02:21:57;3.15;;;2.92;;
15443;SDS011;7822;48.146;11.576;2022-08-04T02:24:33;3.28;;;2.92;;
15443;SDS011;7822;48.146;11.576;2022-08-04T02:27:09;3.20;;;2.90;;
15443;SDS011;7822;48.146;11.576;2022-08-04T02:29:42;3.00;;;2.80;;
15443;SDS011;7822;48.146;11.576;2022-08-04T02:32:24;3.47;;;3.28;;
15443;SDS011;7822;48.146;11.576;2022-08-04T02:34:55;4.03;;;2.88;;
15443;SDS011;7822;48.146;11.576;2022-08-04T02:37:31;3.05;;;2.75;;
15443;SDS011;7822;48.146;11.576;2022-08-04T02:40:00;3.95;;;3.10;;
15443;SDS011;7822;48.146;11.576;2022-08-04T02:42:30;3.28;;;2.97;;
15443;SDS011;7822;48.146;11.576;2022-08-04T02:44:59;3.42;;;3.00;;
15443;SDS011;7822;48.146;11.576;2022-08-04T02:47:28;3.55;;;3.05;;
15443;SDS011;7822;48.146;11.576;2022-08-04T02:50:17;4.70;;;2.92;;
15443;SDS011;7822;48.146;11.576;2022-08-04T02:52:54;6.18;;;3.55;;
15443;SDS011;7822;48.146;11.576;2022-08-04T02:55:24;6.47;;;2.97;;
15443;SDS011;7822;48.146;11.576;2022-08-04T02:57:55;3.30;;;3.03;;
15443;SDS011;7822;48.146;11.576;2022-08-04T03:00:25;3.65;;;3.35;;
15443;SDS011;7822;48.146;11.576;2022-08-04T03:02:58;4.20;;;2.88;;
15443;SDS011;7822;48.146;11.576;2022-08-04T03:05:41;3.95;;;3.15;;
15443;SDS011;7822;48.146;11.576;2022-08-04T03:08:29;4.50;;;3.92;;
15443;SDS011;7822;48.146;11.576;2022-08-04T03:11:40;2.80;;;2.60;;
15443;SDS011;7822;48.146;11.576;2022-08-04T03:17:54;3.30;;;2.97;;
15443;SDS011;7822;48.146;11.576;2022-08-04T03:26:51;3.58;;;3.30;;
15443;SDS011;7822;48.146;11.576;2022-08-04T03:39:07;3.30;;;3.10;;
15443;SDS011;7822;48.146;11.576;2022-08-04T03:41:54;3.53;;;3.22;;
15443;SDS011;7822;48.146;11.576;2022-08-04T03:44:38;3.40;;;3.10;;
15443;SDS011;7822;48.146;11.576;2022-08-04T03:47:27;3.40;;;3.20;;
15443;SDS011;7822;48.146;11.576;2022-08-04T03:50:20;3.65;;;3.35;;
15443;SDS011;7822;48.146;11.576;2022-08-04T03:57:07;3.80;;;3.03;;
15443;SDS011;7822;48.146;11.576;2022-08-04T04:00:02;3.85;;;3.45;;
15443;SDS011;7822;48.146;11.576;2022-08-04T04:02:42;3.90;;;3.10;;
15443;SDS011;7822;48.146;11.576;2022-08-04T04:05:32;5.60;;;3.65;;
15443;SDS011;7822;48.146;11.576;2022-08-04T04:08:28;3.80;;;2.90;;
15443;SDS011;7822;48.146;11.576;2022-08-04T04:11:29;3.70;;;3.40;;
15443;SDS011;7822;48.146;11.576;2022-08-04T04:14:27;3.22;;;3.00;;
15443;SDS011;7822;48.146;11.576;2022-08-04T04:17:38;3.35;;;3.05;;
15443;SDS011;7822;48.146;11.576;2022-08-04T04:20:26;3.17;;;2.97;;
15443;SDS011;7822;48.146;11.576;2022-08-04T04:23:26;3.60;;;3.20;;
15443;SDS011;7822;48.146;11.576;2022-08-04T04:26:16;4.28;;;3.20;;
15443;SDS011;7822;48.146;11.576;2022-08-04T04:29:01;3.45;;;3.15;;
15443;SDS011;7822;48.146;11.576;2022-08-04T04:31:46;3.20;;;3.00;;
15443;SDS011;7822;48.146;11.576;2022-08-04T04:34:30;3.20;;;2.92;;
15443;SDS011;7822;48.146;11.576;2022-08-04T04:37:15;3.60;;;3.30;;
15443;SDS011;7822;48.146;11.576;2022-08-04T04:39:54;4.10;;;3.75;;
15443;SDS011;7822;48.146;11.576;2022-08-04T04:42:37;2.78;;;2.58;;
15443;SDS011;7822;48.146;11.576;2022-08-04T04:45:11;3.55;;;3.30;;
15443;SDS011;7822;48.146;11.576;2022-08-04T04:47:49;3.78;;;3.47;;
15443;SDS011;7822;48.146;11.576;2022-08-04T04:50:37;3.10;;;2.88;;
15443;SDS011;7822;48.146;11.576;2022-08-04T04:53:19;3.80;;;3.38;;
15443;SDS011;7822;48.146;11.576;2022-08-04T04:55:58;4.07;;;3.25;;
15443;SDS011;7822;48.146;11.576;2022-08-04T04:58:32;3.17;;;2.95;;
15443;SDS011;7822;48.146;11.576;2022-08-04T05:01:11;3.60;;;3.30;;
15443;SDS011;7822;48.146;11.576;2022-08-04T05:03:55;3.10;;;2.90;;
15443;SDS011;7822;48.146;11.576;2022-08-04T05:06:48;3.47;;;3.10;;
15443;SDS011;7822;48.146;11.576;2022-08-04T05:09:36;3.22;;;3.03;;
15443;SDS011;7822;48.146;11.576;2022-08-04T05:12:37;3.90;;;3.28;;
15443;SDS011;7822;48.146;11.576;2022-08-04T05:15:39;3.30;;;3.10;;
15443;SDS011;7822;48.146;11.576;2022-08-04T05:18:11;4.80;;;3.22;;
15443;SDS011;7822;48.146;11.576;2022-08-04T05:20:44;3.35;;;3.05;;
15443;SDS011;7822;48.146;11.576;2022-08-04T05:23:18;4.20;;;3.80;;
15443;SDS011;7822;48.146;11.576;2022-08-04T05:25:51;3.80;;;3.50;;
15443;SDS011;7822;48.146;11.576;2022-08-04T05:28:27;3.78;;;3.45;;
15443;SDS011;7822;48.146;11.576;2022-08-04T05:31:00;4.13;;;3.60;;
15443;SDS011;7822;48.146;11.576;2022-08-04T05:33:45;3.90;;;3.60;;
15443;SDS011;7822;48.146;11.576;2022-08-04T05:36:16;4.38;;;3.92;;
15443;SDS011;7822;48.146;11.576;2022-08-04T05:39:05;3.90;;;3.60;;
15443;SDS011;7822;48.146;11.576;2022-08-04T05:41:38;6.70;;;4.57;;
15443;SDS011;7822;48.146;11.576;2022-08-04T05:44:13;4.57;;;4.18;;
15443;SDS011;7822;48.146;11.576;2022-08-04T05:46:43;5.63;;;3.83;;
15443;SDS011;7822;48.146;11.576;2022-08-04T05:49:19;6.22;;;4.55;;
15443;SDS011;7822;48.146;11.576;2022-08-04T05:51:49;7.50;;;6.55;;
15443;SDS011;7822;48.146;11.576;2022-08-04T05:54:18;3.97;;;3.60;;
15443;SDS011;7822;48.146;11.576;2022-08-04T05:56:47;4.45;;;4.05;;
15443;SDS011;7822;48.146;11.576;2022-08-04T05:59:17;9.60;;;4.80;;
15443;SDS011;7822;48.146;11.576;2022-08-04T06:01:46;7.38;;;5.78;;
15443;SDS011;7822;48.146;11.576;2022-08-04T06:04:22;8.25;;;4.55;;
15443;SDS011;7822;48.146;11.576;2022-08-04T06:06:54;4.70;;;4.13;;
15443;SDS011;7822;48.146;11.576;2022-08-04T06:09:21;3.30;;;3.00;;
15443;SDS011;7822;48.146;11.576;2022-08-04T06:11:49;3.70;;;3.33;;
15443;SDS011;7822;48.146;11.576;2022-08-04T06:14:30;3.83;;;3.30;;
15443;SDS011;7822;48.146;11.576;2022-08-04T06:17:02;4.35;;;3.65;;
15443;SDS011;7822;48.146;11.576;2022-08-04T06:19:52;4.25;;;3.65;;
15443;SDS011;7822;48.146;11.576;2022-08-04T06:22:42;3.72;;;3.40;;
15443;SDS011;7822;48.146;11.576;2022-08-04T06:25:14;3.92;;;3.58;;
15443;SDS011;7822;48.146;11.576;2022-08-04T06:27:45;4.70;;;3.70;;
15443;SDS011;7822;48.146;11.576;2022-08-04T06:30:16;5.25;;;4.13;;
15443;SDS011;7822;48.146;11.576;2022-08-04T06:32:45;4.75;;;4.25;;
15443;SDS011;7822;48.146;11.576;2022-08-04T06:35:30;5.82;;;4.55;;
15443;SDS011;7822;48.146;11.576;2022-08-04T06:37:58;6.05;;;3.85;;
15443;SDS011;7822;48.146;11.576;2022-08-04T06:40:28;6.88;;;4.47;;
15443;SDS011;7822;48.146;11.576;2022-08-04T06:42:59;6.32;;;4.35;;
15443;SDS011;7822;48.146;11.576;2022-08-04T06:45:31;6.60;;;4.32;;
15443;SDS011;7822;48.146;11.576;2022-08-04T06:48:00;5.90;;;4.20;;
15443;SDS011;7822;48.146;11.576;2022-08-04T06:50:29;5.85;;;4.30;;
15443;SDS011;7822;48.146;11.576;2022-08-04T06:53:18;7.32;;;4.50;;
15443;SDS011;7822;48.146;11.576;2022-08-04T06:55:46;8.10;;;5.13;;
15443;SDS011;7822;48.146;11.576;2022-08-04T06:58:15;5.60;;;4.45;;
15443;SDS011;7822;48.146;11.576;2022-08-04T07:00:46;6.50;;;4.45;;
15443;SDS011;7822;48.146;11.576;2022-08-04T07:03:17;5.28;;;4.00;;
15443;SDS011;7822;48.146;11.576;2022-08-04T07:05:46;6.03;;;4.65;;
15443;SDS011;7822;48.146;11.576;2022-08-04T07:08:15;9.68;;;5.32;;
15443;SDS011;7822;48.146;11.576;2022-08-04T07:10:43;4.65;;;4.25;;
15443;SDS011;7822;48.146;11.576;2022-08-04T07:13:11;4.88;;;4.38;;
15443;SDS011;7822;48.146;11.576;2022-08-04T07:15:40;4.78;;;4.05;;
15443;SDS011;7822;48.146;11.576;2022-08-04T07:18:12;4.90;;;4.18;;
15443;SDS011;7822;48.146;11.576;2022-08-04T07:20:41;4.97;;;3.65;;
15443;SDS011;7822;48.146;11.576;2022-08-04T07:23:09;4.32;;;3.92;;
15443;SDS011;7822;48.146;11.576;2022-08-04T07:25:42;4.55;;;3.63;;
15443;SDS011;7822;48.146;11.576;2022-08-04T07:28:28;4.60;;;3.92;;
15443;SDS011;7822;48.146;11.576;2022-08-04T07:30:56;4.03;;;3.63;;
15443;SDS011;7822;48.146;11.576;2022-08-04T07:33:26;4.13;;;3.83;;
15443;SDS011;7822;48.146;11.576;2022-08-04T07:35:54;4.10;;;3.70;;
15443;SDS011;7822;48.146;11.576;2022-08-04T07:38:36;3.65;;;3.35;;
15443;SDS011;7822;48.146;11.576;2022-08-04T07:41:18;4.40;;;4.00;;
15443;SDS011;7822;48.146;11.576;2022-08-04T07:44:03;5.15;;;3.95;;
15443;SDS011;7822;48.146;11.576;2022-08-04T07:46:33;4.75;;;3.67;;
15443;SDS011;7822;48.146;11.576;2022-08-04T07:49:02;3.50;;;3.20;;
15443;SDS011;7822;48.146;11.576;2022-08-04T07:51:30;4.03;;;3.67;;
15443;SDS011;7822;48.146;11.576;2022-08-04T07:54:00;4.82;;;4.30;;
15443;SDS011;7822;48.146;11.576;2022-08-04T07:56:29;4.22;;;3.90;;
15443;SDS011;7822;48.146;11.576;2022-08-04T07:58:58;3.95;;;3.58;;
15443;SDS011;7822;48.146;11.576;2022-08-04T08:01:27;4.82;;;3.88;;
15443;SDS011;7822;48.146;11.576;2022-08-04T08:03:55;5.53;;;4.00;;
15443;SDS011;7822;48.146;11.576;2022-08-04T08:06:28;3.92;;;3.63;;
15443;SDS011;7822;48.146;11.576;2022-08-04T08:09:06;5.00;;;4.05;;
15443;SDS011;7822;48.146;11.576;2022-08-04T08:11:39;4.20;;;3.90;;
15443;SDS011;7822;48.146;11.576;2022-08-04T08:14:30;4.00;;;3.70;;
15443;SDS011;7822;48.146;11.576;2022-08-04T08:17:00;5.47;;;4.88;;
15443;SDS011;7822;48.146;11.576;2022-08-04T08:19:29;5.68;;;4.55;;
15443;SDS011;7822;48.146;11.576;2022-08-04T08:21:59;5.28;;;4.72;;
15443;SDS011;7822;48.146;11.576;2022-08-04T08:24:27;4.07;;;3.78;;
15443;SDS011;7822;48.146;11.576;2022-08-04T08:26:57;4.75;;;4.30;;
15443;SDS011;7822;48.146;11.576;2022-08-04T08:29:25;4.05;;;3.65;;
15443;SDS011;7822;48.146;11.576;2022-08-04T08:31:55;4.00;;;3.58;;
15443;SDS011;7822;48.146;11.576;2022-08-04T08:34:28;3.80;;;3.50;;
15443;SDS011;7822;48.146;11.576;2022-08-04T08:37:00;4.38;;;4.03;;
15443;SDS011;7822;48.146;11.576;2022-08-04T08:39:33;3.88;;;3.53;;
15443;SDS011;7822;48.146;11.576;2022-08-04T08:42:14;4.80;;;4.40;;
15443;SDS011;7822;48.146;11.576;2022-08-04T08:45:12;3.65;;;3.45;;
15443;SDS011;7822;48.146;11.576;2022-08-04T08:57:36;3.78;;;3.47;;
15443;SDS011;7822;48.146;11.576;2022-08-04T09:00:27;4.03;;;3.58;;
15443;SDS011;7822;48.146;11.576;2022-08-04T09:03:08;4.70;;;3.35;;
15443;SDS011;7822;48.146;11.576;2022-08-04T09:05:54;4.95;;;3.75;;
15443;SDS011;7822;48.146;11.576;2022-08-04T09:08:44;5.28;;;3.70;;
15443;SDS011;7822;48.146;11.576;2022-08-04T09:11:35;4.10;;;3.70;;
15443;SDS011;7822;48.146;11.576;2022-08-04T09:14:12;4.45;;;3.50;;
15443;SDS011;7822;48.146;11.576;2022-08-04T09:16:50;3.70;;;3.40;;
15443;SDS011;7822;48.146;11.576;2022-08-04T09:19:26;5.88;;;3.95;;
15443;SDS011;7822;48.146;11.576;2022-08-04T09:22:08;3.67;;;3.38;;
15443;SDS011;7822;48.146;11.576;2022-08-04T09:24:46;4.80;;;4.18;;
15443;SDS011;7822;48.146;11.576;2022-08-04T09:27:18;3.83;;;3.40;;
15443;SDS011;7822;48.146;11.576;2022-08-04T09:30:03;4.15;;;3.70;;
15443;SDS011;7822;48.146;11.576;2022-08-04T09:32:39;4.35;;;3.63;;
15443;SDS011;7822;48.146;11.576;2022-08-04T09:35:16;4.00;;;3.70;;
15443;SDS011;7822;48.146;11.576;2022-08-04T09:38:01;4.13;;;3.80;;
15443;SDS011;7822;48.146;11.576;2022-08-04T09:40:37;4.88;;;3.75;;
15443;SDS011;7822;48.146;11.576;2022-08-04T09:43:31;6.50;;;4.25;;
15443;SDS011;7822;48.146;11.576;2022-08-04T09:46:28;3.30;;;3.10;;
15443;SDS011;7822;48.146;11.576;2022-08-04T09:49:01;4.30;;;3.90;;
15443;SDS011;7822;48.146;11.576;2022-08-04T09:51:37;5.32;;;3.58;;
15443;SDS011;7822;48.146;11.576;2022-08-04T09:54:26;3.95;;;3.55;;
15443;SDS011;7822;48.146;11.576;2022-08-04T09:57:02;4.55;;;4.00;;
15443;SDS011;7822;48.146;11.576;2022-08-04T09:59:40;4.28;;;3.80;;
15443;SDS011;7822;48.146;11.576;2022-08-04T10:02:14;4.25;;;3.85;;
15443;SDS011;7822;48.146;11.576;2022-08-04T10:04:45;3.80;;;3.50;;
15443;SDS011;7822;48.146;11.576;2022-08-04T10:07:18;4.45;;;4.05;;
15443;SDS011;7822;48.146;11.576;2022-08-04T10:10:08;3.65;;;3.33;;
15443;SDS011;7822;48.146;11.576;2022-08-04T10:12:44;3.53;;;3.22;;
15443;SDS011;7822;48.146;11.576;2022-08-04T10:15:32;3.63;;;3.33;;
15443;SDS011;7822;48.146;11.576;2022-08-04T10:18:16;3.30;;;3.10;;
15443;SDS011;7822;48.146;11.576;2022-08-04T10:21:00;3.85;;;3.65;;
15443;SDS011;7822;48.146;11.576;2022-08-04T10:26:41;3.80;;;3.50;;
15443;SDS011;7822;48.146;11.576;2022-08-04T10:29:21;3.42;;;3.22;;
15443;SDS011;7822;48.146;11.576;2022-08-04T10:31:56;3.67;;;3.38;;
15443;SDS011;7822;48.146;11.576;2022-08-04T10:34:28;3.78;;;3.50;;
15443;SDS011;7822;48.146;11.576;2022-08-04T10:37:08;4.38;;;3.88;;
15443;SDS011;7822;48.146;11.576;2022-08-04T10:39:46;4.13;;;3.50;;
15443;SDS011;7822;48.146;11.576;2022-08-04T10:42:35;4.05;;;3.67;;
15443;SDS011;7822;48.146;11.576;2022-08-04T10:45:09;5.32;;;3.20;;
15443;SDS011;7822;48.146;11.576;2022-08-04T10:47:44;2.85;;;2.65;;
15443;SDS011;7822;48.146;11.576;2022-08-04T10:50:22;2.63;;;2.42;;
15443;SDS011;7822;48.146;11.576;2022-08-04T10:52:54;3.67;;;3.38;;
15443;SDS011;7822;48.146;11.576;2022-08-04T10:55:30;3.28;;;2.97;;
15443;SDS011;7822;48.146;11.576;2022-08-04T10:58:26;3.03;;;2.83;;
15443;SDS011;7822;48.146;11.576;2022-08-04T11:01:14;3.33;;;3.13;;
15443;SDS011;7822;48.146;11.576;2022-08-04T11:04:09;3.50;;;2.97;;
15443;SDS011;7822;48.146;11.576;2022-08-04T11:06:54;3.47;;;3.17;;
15443;SDS011;7822;48.146;11.576;2022-08-04T11:09:25;3.42;;;3.13;;
15443;SDS011;7822;48.146;11.576;2022-08-04T11:11:55;3.42;;;3.13;;
15443;SDS011;7822;48.146;11.576;2022-08-04T11:14:32;3.88;;;3.25;;
15443;SDS011;7822;48.146;11.576;2022-08-04T11:17:05;3.22;;;2.97;;
15443;SDS011;7822;48.146;11.576;2022-08-04T11:19:38;3.38;;;3.08;;
15443;SDS011;7822;48.146;11.576;2022-08-04T11:22:22;3.45;;;3.15;;
15443;SDS011;7822;48.146;11.576;2022-08-04T11:24:52;3.67;;;3.38;;
15443;SDS011;7822;48.146;11.576;2022-08-04T11:27:27;3.53;;;3.22;;
15443;SDS011;7822;48.146;11.576;2022-08-04T11:30:02;3.25;;;2.95;;
15443;SDS011;7822;48.146;11.576;2022-08-04T11:32:33;3.25;;;2.97;;
15443;SDS011;7822;48.146;11.576;2022-08-04T11:35:08;3.13;;;2.92;;
15443;SDS011;7822;48.146;11.576;2022-08-04T11:37:47;3.47;;;2.80;;
15443;SDS011;7822;48.146;11.576;2022-08-04T11:40:19;3.10;;;2.90;;
15443;SDS011;7822;48.146;11.576;2022-08-04T11:42:51;3.30;;;3.00;;
15443;SDS011;7822;48.146;11.576;2022-08-04T11:45:35;3.63;;;3.33;;
15443;SDS011;7822;48.146;11.576;2022-08-04T11:48:08;3.25;;;2.92;;
15443;SDS011;7822;48.146;11.576;2022-08-04T11:50:43;3.47;;;3.20;;
15443;SDS011;7822;48.146;11.576;2022-08-04T11:53:21;3.20;;;2.90;;
15443;SDS011;7822;48.146;11.576;2022-08-04T11:56:02;3.00;;;2.80;;
15443;SDS011;7822;48.146;11.576;2022-08-04T11:58:36;2.80;;;2.65;;
15443;SDS011;7822;48.146;11.576;2022-08-04T12:01:07;3.40;;;2.85;;
15443;SDS011;7822;48.146;11.576;2022-08-04T12:03:48;2.83;;;2.63;;
15443;SDS011;7822;48.146;11.576;2022-08-04T12:06:30;2.78;;;2.47;;
15443;SDS011;7822;48.146;11.576;2022-08-04T12:09:31;3.45;;;2.47;;
15443;SDS011;7822;48.146;11.576;2022-08-04T12:12:13;2.85;;;2.65;;
15443;SDS011;7822;48.146;11.576;2022-08-04T12:14:50;4.57;;;2.33;;
15443;SDS011;7822;48.146;11.576;2022-08-04T12:17:26;3.13;;;2.78;;
15443;SDS011;7822;48.146;11.576;2022-08-04T12:20:18;3.13;;;2.92;;
15443;SDS011;7822;48.146;11.576;2022-08-04T12:23:06;2.75;;;2.55;;
15443;SDS011;7822;48.146;11.576;2022-08-04T12:25:44;2.72;;;2.30;;
15443;SDS011;7822;48.146;11.576;2022-08-04T12:28:15;2.45;;;2.20;;
15443;SDS011;7822;48.146;11.576;2022-08-04T12:30:50;2.92;;;2.28;;
15443;SDS011;7822;48.146;11.576;2022-08-04T12:33:33;2.83;;;2.63;;
15443;SDS011;7822;48.146;11.576;2022-08-04T12:36:26;3.10;;;2.90;;
15443;SDS011;7822;48.146;11.576;2022-08-04T12:39:00;2.70;;;2.38;;
15443;SDS011;7822;48.146;11.576;2022-08-04T12:41:39;3.40;;;2.83;;
15443;SDS011;7822;48.146;11.576;2022-08-04T12:44:11;3.28;;;2.95;;
15443;SDS011;7822;48.146;11.576;2022-08-04T12:47:00;2.47;;;2.28;;
15443;SDS011;7822;48.146;11.576;2022-08-04T12:49:50;2.97;;;2.65;;
15443;SDS011;7822;48.146;11.576;2022-08-04T12:52:26;3.33;;;3.03;;
15443;SDS011;7822;48.146;11.576;2022-08-04T12:55:15;4.40;;;2.40;;
15443;SDS011;7822;48.146;11.576;2022-08-04T12:57:45;2.92;;;2.67;;
15443;SDS011;7822;48.146;11.576;2022-08-04T13:00:22;3.13;;;2.63;;
15443;SDS011;7822;48.146;11.576;2022-08-04T13:02:57;3.10;;;2.80;;
15443;SDS011;7822;48.146;11.576;2022-08-04T13:05:35;3.55;;;2.60;;
15443;SDS011;7822;48.146;11.576;2022-08-04T13:08:04;3.88;;;2.42;;
15443;SDS011;7822;48.146;11.576;2022-08-04T13:10:35;3.33;;;2.90;;
15443;SDS011;7822;48.146;11.576;2022-08-04T13:13:12;2.63;;;2.42;;
15443;SDS011;7822;48.146;11.576;2022-08-04T13:15:43;2.80;;;2.60;;
15443;SDS011;7822;48.146;11.576;2022-08-04T13:18:22;2.45;;;2.35;;
15443;SDS011;7822;48.146;11.576;2022-08-04T13:21:06;2.70;;;2.50;;
15443;SDS011;7822;48.146;11.576;2022-08-04T13:23:47;2.65;;;2.45;;
15443;SDS011;7822;48.146;11.576;2022-08-04T13:26:36;2.25;;;2.10;;
15443;SDS011;7822;48.146;11.576;2022-08-04T13:29:22;2.63;;;2.42;;
15443;SDS011;7822;48.146;11.576;2022-08-04T13:32:16;2.78;;;2.58;;
15443;SDS011;7822;48.146;11.576;2022-08-04T13:34:47;3.00;;;2.70;;
15443;SDS011;7822;48.146;11.576;2022-08-04T13:37:19;2.88;;;2.67;;
15443;SDS011;7822;48.146;11.576;2022-08-04T13:39:52;2.67;;;2.47;;
15443;SDS011;7822;48.146;11.576;2022-08-04T13:42:23;3.88;;;2.95;;
15443;SDS011;7822;48.146;11.576;2022-08-04T13:44:54;2.75;;;2.55;;
15443;SDS011;7822;48.146;11.576;2022-08-04T13:47:24;2.78;;;2.55;;
15443;SDS011;7822;48.146;11.576;2022-08-04T13:50:10;2.90;;;2.70;;
15443;SDS011;7822;48.146;11.576;2022-08-04T13:52:42;2.67;;;2.47;;
15443;SDS011;7822;48.146;11.576;2022-08-04T13:55:17;3.17;;;2.72;;
15443;SDS011;7822;48.146;11.576;2022-08-04T13:57:50;5.45;;;3.00;;
15443;SDS011;7822;48.146;11.576;2022-08-04T14:00:23;3.58;;;2.92;;
15443;SDS011;7822;48.146;11.576;2022-08-04T14:02:59;3.05;;;2.80;;
15443;SDS011;7822;48.146;11.576;2022-08-04T14:06:08;3.10;;;2.83;;
15443;SDS011;7822;48.146;11.576;2022-08-04T14:08:50;2.55;;;2.45;;
15443;SDS011;7822;48.146;11.576;2022-08-04T14:11:21;3.03;;;2.72;;
15443;SDS011;7822;48.146;11.576;2022-08-04T14:14:18;3.20;;;2.90;;
15443;SDS011;7822;48.146;11.576;2022-08-04T14:17:00;2.53;;;2.33;;
15443;SDS011;7822;48.146;11.576;2022-08-04T14:19:48;3.28;;;2.72;;
15443;SDS011;7822;48.146;11.576;2022-08-04T14:22:28;3.60;;;2.80;;
15443;SDS011;7822;48.146;11.576;2022-08-04T14:25:02;3.40;;;3.10;;
15443;SDS011;7822;48.146;11.576;2022-08-04T14:27:41;3.08;;;2.83;;
15443;SDS011;7822;48.146;11.576;2022-08-04T14:30:19;2.60;;;2.40;;
15443;SDS011;7822;48.146;11.576;2022-08-04T14:32:56;3.20;;;2.60;;
15443;SDS011;7822;48.146;11.576;2022-08-04T14:35:54;2.65;;;2.50;;
15443;SDS011;7822;48.146;11.576;2022-08-04T14:38:23;2.72;;;2.58;;
15443;SDS011;7822;48.146;11.576;2022-08-04T14:41:07;3.33;;;3.03;;
15443;SDS011;7822;48.146;11.576;2022-08-04T14:43:39;2.97;;;2.67;;
15443;SDS011;7822;48.146;11.576;2022-08-04T14:46:09;2.80;;;2.60;;
15443;SDS011;7822;48.146;11.576;2022-08-04T14:48:40;4.22;;;2.50;;
15443;SDS011;7822;48.146;11.576;2022-08-04T14:51:26;2.50;;;2.30;;
15443;SDS011;7822;48.146;11.576;2022-08-04T14:54:02;4.05;;;2.40;;
15443;SDS011;7822;48.146;11.576;2022-08-04T14:56:35;2.85;;;2.60;;
15443;SDS011;7822;48.146;11.576;2022-08-04T14:59:12;2.70;;;2.50;;
15443;SDS011;7822;48.146;11.576;2022-08-04T15:01:40;2.80;;;2.60;;
15443;SDS011;7822;48.146;11.576;2022-08-04T15:04:10;2.55;;;2.38;;
15443;SDS011;7822;48.146;11.576;2022-08-04T15:06:40;2.75;;;2.55;;
15443;SDS011;7822;48.146;11.576;2022-08-04T15:09:08;2.30;;;2.20;;
15443;SDS011;7822;48.146;11.576;2022-08-04T15:11:37;2.60;;;2.40;;
15443;SDS011;7822;48.146;11.576;2022-08-04T15:14:08;2.42;;;2.22;;
15443;SDS011;7822;48.146;11.576;2022-08-04T15:16:56;2.75;;;2.55;;
15443;SDS011;7822;48.146;11.576;2022-08-04T15:19:25;2.88;;;2.67;;
15443;SDS011;7822;48.146;11.576;2022-08-04T15:21:53;2.70;;;2.50;;
15443;SDS011;7822;48.146;11.576;2022-08-04T15:24:21;2.20;;;2.10;;
15443;SDS011;7822;48.146;11.576;2022-08-04T15:26:50;3.83;;;2.38;;
15443;SDS011;7822;48.146;11.576;2022-08-04T15:29:24;2.55;;;2.35;;
15443;SDS011;7822;48.146;11.576;2022-08-04T15:32:14;2.45;;;2.25;;
15443;SDS011;7822;48.146;11.576;2022-08-04T15:34:45;2.55;;;2.17;;
15443;SDS011;7822;48.146;11.576;2022-08-04T15:37:14;2.50;;;2.20;;
15443;SDS011;7822;48.146;11.576;2022-08-04T15:39:53;2.42;;;2.22;;
15443;SDS011;7822;48.146;11.576;2022-08-04T15:42:29;2.60;;;2.40;;
15443;SDS011;7822;48.146;11.576;2022-08-04T15:45:16;2.67;;;2.47;;
15443;SDS011;7822;48.146;11.576;2022-08-04T15:56:58;2.45;;;2.35;;
15443;SDS011;7822;48.146;11.576;2022-08-04T16:02:34;2.80;;;2.60;;
15443;SDS011;7822;48.146;11.576;2022-08-04T16:08:07;2.45;;;2.25;;
15443;SDS011;7822;48.146;11.576;2022-08-04T16:10:38;2.60;;;2.40;;
15443;SDS011;7822;48.146;11.576;2022-08-04T16:13:08;2.63;;;2.20;;
15443;SDS011;7822;48.146;11.576;2022-08-04T16:15:39;2.90;;;2.58;;
15443;SDS011;7822;48.146;11.576;2022-08-04T16:18:13;3.00;;;2.30;;
15443;SDS011;7822;48.146;11.576;2022-08-04T16:20:52;2.95;;;2.42;;
15443;SDS011;7822;48.146;11.576;2022-08-04T16:23:30;2.92;;;2.72;;
15443;SDS011;7822;48.146;11.576;2022-08-04T16:26:40;2.65;;;2.45;;
15443;SDS011;7822;48.146;11.576;2022-08-04T16:32:08;2.70;;;2.50;;
15443;SDS011;7822;48.146;11.576;2022-08-04T16:34:38;3.80;;;2.55;;
15443;SDS011;7822;48.146;11.576;2022-08-04T16:37:19;2.40;;;2.22;;
15443;SDS011;7822;48.146;11.576;2022-08-04T16:39:49;2.47;;;2.25;;
15443;SDS011;7822;48.146;11.576;2022-08-04T16:43:10;4.35;;;2.80;;
15443;SDS011;7822;48.146;11.576;2022-08-04T16:46:43;3.20;;;3.00;;
15443;SDS011;7822;48.146;11.576;2022-08-04T16:50:21;3.28;;;2.95;;
15443;SDS011;7822;48.146;11.576;2022-08-04T16:56:35;2.78;;;2.53;;